Sawyer International Airport Marquette US
ICAO: KSAW
IATA: SAW
Category: Medium
Scheduled Services: No

Elevation: 1221 ft
TransAlt. 18000 ft.

Airport Communications:
AWOS 3:118.375
MINNEAPOLIS CNTR:119.1
CTAF:119.975
GND:121.65
GREEN BAY RDO:123.6
TWR:119.975
UNICOM:122.7

KSAW Zoom In..

If you have problems with the map follow the link
https://www.worldairports.se/pages/airport.php?
ICAO=KSAW

Runways:

(A) RW 01 length 12366 ft width 150 ft
ILS 110.10 / hdg 13

(B) RW 19 length 12366 ft width 150 ft
---- / hdg 193

Location; KSAW
Day. 27 / Time. 00.47 Zulu
* Altimeter: 29.83
* Temperature: -02° c. -28.4°f.
* Wind from: 340° Speed 09 kn.
Dewpoint: -03° c.
Visibility: 2 Statute Miles.
Clouds: Scattered 600 ft.
Clouds: Broken 1000 ft.
Clouds: Overcast 1800 ft.
Conditions: Light Snow.

KSAW 270047Z 34009KT 2SM -SN SCT006 BKN010 OVC018 M02/M03 A2983


Wind From 340°
Speed 09 kn.

 
 
jpsmedia worldairports.se 2020   terms of use